createdAt,value
2023-02-12T00:01:36.191Z,40.43
2023-02-12T00:04:05.131Z,38.80
2023-02-12T00:06:33.511Z,40.30
2023-02-12T00:09:02.005Z,43.17
2023-02-12T00:11:31.651Z,44.83
2023-02-12T00:14:00.280Z,43.13
2023-02-12T00:16:30.645Z,43.27
2023-02-12T00:18:59.718Z,42.40
2023-02-12T00:21:28.824Z,42.73
2023-02-12T00:23:57.710Z,39.63
2023-02-12T00:26:26.500Z,37.73
2023-02-12T00:28:55.514Z,39.10
2023-02-12T00:31:26.004Z,41.53
2023-02-12T00:34:00.501Z,36.30
2023-02-12T00:36:30.919Z,39.47
2023-02-12T00:39:00.791Z,39.27
2023-02-12T00:41:29.686Z,40.43
2023-02-12T00:43:58.002Z,41.53
2023-02-12T00:46:26.520Z,39.80
2023-02-12T00:48:54.938Z,42.10
2023-02-12T00:51:24.885Z,41.07
2023-02-12T00:53:53.316Z,39.63
2023-02-12T00:56:21.863Z,39.50
2023-02-12T00:58:50.824Z,41.27
2023-02-12T01:01:19.853Z,43.07
2023-02-12T01:03:48.265Z,42.60
2023-02-12T01:06:16.713Z,42.67
2023-02-12T01:08:52.892Z,36.50
2023-02-12T01:11:21.359Z,39.90
2023-02-12T01:13:50.412Z,38.70
2023-02-12T01:16:22.130Z,38.50
2023-02-12T01:18:55.193Z,38.33
2023-02-12T01:21:27.109Z,37.03
2023-02-12T01:23:57.907Z,39.20
2023-02-12T01:26:27.152Z,37.80
2023-02-12T01:29:01.397Z,37.80
2023-02-12T01:31:33.411Z,39.17
2023-02-12T01:34:02.536Z,40.57
2023-02-12T01:36:32.209Z,36.40
2023-02-12T01:39:03.066Z,38.57
2023-02-12T01:41:34.605Z,41.37
2023-02-12T01:44:16.936Z,41.27
2023-02-12T01:46:49.445Z,40.23
2023-02-12T01:49:23.516Z,41.63
2023-02-12T01:51:56.080Z,39.03
2023-02-12T01:54:27.117Z,37.57
2023-02-12T01:56:56.082Z,43.00
2023-02-12T01:59:25.972Z,39.93
2023-02-12T02:01:56.270Z,41.57
2023-02-12T02:04:29.216Z,37.70
2023-02-12T02:07:00.450Z,39.13
2023-02-12T02:09:31.603Z,40.73
2023-02-12T02:12:17.729Z,42.53
2023-02-12T02:14:47.362Z,36.80
2023-02-12T02:17:40.454Z,42.30
2023-02-12T02:20:37.409Z,46.60
2023-02-12T02:23:31.145Z,41.17
2023-02-12T02:26:51.625Z,37.77
2023-02-12T02:29:47.815Z,40.40
2023-02-12T02:32:23.651Z,35.90
2023-02-12T02:35:00.287Z,37.63
2023-02-12T02:37:33.055Z,38.33
2023-02-12T02:40:10.549Z,36.30
2023-02-12T02:42:43.568Z,35.03
2023-02-12T02:45:16.049Z,35.63
2023-02-12T02:47:49.318Z,35.83
2023-02-12T02:50:20.932Z,33.70
2023-02-12T02:52:53.418Z,34.63
2023-02-12T02:55:23.671Z,38.20
2023-02-12T02:57:57.160Z,35.13
2023-02-12T03:00:32.861Z,39.03
2023-02-12T03:03:08.599Z,34.90
2023-02-12T03:05:41.395Z,34.60
2023-02-12T03:08:13.646Z,32.83
2023-02-12T03:10:45.579Z,34.60
2023-02-12T03:13:19.640Z,32.50
2023-02-12T03:15:52.744Z,35.00
2023-02-12T03:18:25.826Z,34.27
2023-02-12T03:20:59.685Z,37.37
2023-02-12T03:23:32.704Z,35.80
2023-02-12T03:26:06.050Z,33.63
2023-02-12T03:28:37.692Z,34.80
2023-02-12T03:31:13.134Z,34.80
2023-02-12T03:34:00.068Z,35.67
2023-02-12T03:36:36.096Z,34.90
2023-02-12T03:39:12.296Z,33.23
2023-02-12T03:41:46.455Z,34.33
2023-02-12T03:44:25.019Z,29.80
2023-02-12T03:47:02.524Z,29.87
2023-02-12T03:49:36.094Z,31.90
2023-02-12T03:52:05.716Z,30.00
2023-02-12T03:54:34.444Z,28.87
2023-02-12T03:57:08.807Z,35.33
2023-02-12T03:59:39.249Z,31.77
2023-02-12T04:02:08.328Z,32.33
2023-02-12T04:04:38.328Z,31.47
2023-02-12T04:07:06.877Z,27.77
2023-02-12T04:09:35.129Z,33.10
2023-02-12T04:12:15.404Z,29.53
2023-02-12T04:14:50.992Z,29.90
2023-02-12T04:17:27.796Z,28.40
2023-02-12T04:20:10.085Z,31.93
2023-02-12T04:22:48.909Z,30.33
2023-02-12T04:25:34.519Z,32.63
2023-02-12T04:28:13.332Z,30.40
2023-02-12T04:30:46.936Z,27.23
2023-02-12T04:33:20.158Z,29.53
2023-02-12T04:35:55.096Z,25.40
2023-02-12T04:38:27.977Z,26.17
2023-02-12T04:40:57.607Z,26.20
2023-02-12T04:43:31.043Z,25.67
2023-02-12T04:46:00.121Z,31.20
2023-02-12T04:48:29.346Z,37.23
2023-02-12T04:50:59.994Z,31.27
2023-02-12T04:53:28.985Z,31.73
2023-02-12T04:56:01.049Z,29.87
2023-02-12T04:58:31.814Z,29.90
2023-02-12T05:01:03.068Z,27.73
2023-02-12T05:03:31.440Z,30.53
2023-02-12T05:06:11.148Z,24.90
2023-02-12T05:08:39.588Z,24.73
2023-02-12T05:11:09.926Z,29.00
2023-02-12T05:13:42.220Z,25.00
2023-02-12T05:16:11.236Z,27.40
2023-02-12T05:18:43.624Z,26.90
2023-02-12T05:21:13.885Z,26.13
2023-02-12T05:23:45.731Z,25.10
2023-02-12T05:26:19.421Z,30.03
2023-02-12T05:28:51.305Z,24.50
2023-02-12T05:31:22.554Z,28.03
2023-02-12T05:33:51.657Z,27.73
2023-02-12T05:36:26.694Z,27.37
2023-02-12T05:38:59.334Z,30.00
2023-02-12T05:41:28.107Z,28.60
2023-02-12T05:43:56.988Z,32.77
2023-02-12T05:46:25.526Z,30.67
2023-02-12T05:48:55.091Z,34.70
2023-02-12T05:51:32.117Z,35.70
2023-02-12T05:54:04.017Z,29.33
2023-02-12T05:56:34.237Z,33.90
2023-02-12T05:59:05.438Z,32.97
2023-02-12T06:01:39.315Z,27.50
2023-02-12T06:04:12.574Z,28.70
2023-02-12T06:06:43.035Z,31.70
2023-02-12T06:09:12.865Z,27.57
2023-02-12T06:11:42.080Z,33.93
2023-02-12T06:14:14.848Z,29.83
2023-02-12T06:16:46.643Z,28.43
2023-02-12T06:19:16.378Z,26.93
2023-02-12T06:21:48.503Z,30.37
2023-02-12T06:24:19.207Z,28.47
2023-02-12T06:26:53.657Z,32.23
2023-02-12T06:29:25.047Z,32.90
2023-02-12T06:31:53.693Z,33.23
2023-02-12T06:34:27.345Z,27.90
2023-02-12T06:36:57.810Z,31.10
2023-02-12T06:39:26.689Z,29.73
2023-02-12T06:41:55.523Z,28.97
2023-02-12T06:44:27.418Z,29.90
2023-02-12T06:46:55.904Z,32.60
2023-02-12T06:49:24.207Z,28.80
2023-02-12T06:51:52.529Z,31.80
2023-02-12T06:54:22.350Z,30.00
2023-02-12T06:56:50.972Z,31.80
2023-02-12T06:59:19.455Z,27.70
2023-02-12T07:01:47.905Z,35.70
2023-02-12T07:04:16.547Z,49.40
2023-02-12T07:06:45.003Z,41.03
2023-02-12T07:09:13.489Z,35.60
2023-02-12T07:11:43.573Z,40.23
2023-02-12T07:14:15.976Z,34.47
2023-02-12T07:16:44.884Z,33.00
2023-02-12T07:19:16.440Z,34.43
2023-02-12T07:21:44.903Z,34.53
2023-02-12T07:24:14.566Z,34.73
2023-02-12T07:26:44.408Z,34.33
2023-02-12T07:29:12.938Z,32.90
2023-02-12T07:31:42.030Z,30.00
2023-02-12T07:34:12.352Z,34.20
2023-02-12T07:36:40.928Z,40.90
2023-02-12T07:39:09.306Z,33.80
2023-02-12T07:41:38.006Z,34.73
2023-02-12T07:44:10.348Z,184.53
2023-02-12T07:46:46.277Z,103.13
2023-02-12T07:49:18.198Z,68.10
2023-02-12T07:51:47.093Z,53.87
2023-02-12T07:54:16.259Z,47.00
2023-02-12T07:56:46.922Z,38.80
2023-02-12T07:59:19.228Z,41.17
2023-02-12T08:01:49.053Z,40.70
2023-02-12T08:04:19.137Z,36.93
2023-02-12T08:06:49.324Z,39.80
2023-02-12T08:09:19.518Z,34.90
2023-02-12T08:11:48.079Z,37.57
2023-02-12T08:14:19.716Z,34.40
2023-02-12T08:16:49.211Z,40.13
2023-02-12T08:19:21.686Z,37.43
2023-02-12T08:21:52.230Z,42.00
2023-02-12T08:24:22.142Z,36.40
2023-02-12T08:26:51.512Z,38.17
2023-02-12T08:29:24.198Z,38.00
2023-02-12T08:31:57.191Z,34.57
2023-02-12T08:34:27.584Z,34.20
2023-02-12T08:36:56.962Z,37.33
2023-02-12T08:39:27.434Z,43.00
2023-02-12T08:41:57.030Z,34.50
2023-02-12T08:44:27.543Z,37.67
2023-02-12T08:46:56.700Z,35.67
2023-02-12T08:49:27.236Z,42.13
2023-02-12T08:51:57.706Z,42.93
2023-02-12T08:54:27.504Z,38.87
2023-02-12T08:56:56.841Z,37.80
2023-02-12T08:59:27.111Z,39.97
2023-02-12T09:01:55.861Z,38.50
2023-02-12T09:04:26.380Z,36.50
2023-02-12T09:06:55.024Z,41.53
2023-02-12T09:09:23.852Z,35.27
2023-02-12T09:11:52.330Z,36.00
2023-02-12T09:14:24.279Z,38.23
2023-02-12T09:16:55.129Z,40.97
2023-02-12T09:19:24.259Z,36.53
2023-02-12T09:21:55.754Z,37.73
2023-02-12T09:24:26.170Z,37.43
2023-02-12T09:26:54.689Z,40.20
2023-02-12T09:29:23.249Z,42.93
2023-02-12T09:31:51.939Z,47.00
2023-02-12T09:34:22.538Z,47.40
2023-02-12T09:36:51.108Z,40.60
2023-02-12T09:39:21.067Z,41.20
2023-02-12T09:42:07.422Z,38.83
2023-02-12T09:44:44.867Z,40.40
2023-02-12T09:47:18.617Z,37.50
2023-02-12T09:50:13.961Z,38.33
2023-02-12T09:52:42.872Z,36.63
2023-02-12T09:55:17.385Z,35.40
2023-02-12T09:57:47.282Z,38.73
2023-02-12T10:00:19.418Z,35.20
2023-02-12T10:02:50.766Z,42.00
2023-02-12T10:05:26.381Z,39.33
2023-02-12T10:08:22.135Z,40.20
2023-02-12T10:10:55.161Z,39.67
2023-02-12T10:13:35.991Z,41.13
2023-02-12T10:16:15.717Z,44.23
2023-02-12T10:18:59.944Z,51.87
2023-02-12T10:21:49.314Z,42.70
2023-02-12T10:24:44.293Z,38.93
2023-02-12T10:27:16.637Z,39.03
2023-02-12T10:29:48.054Z,39.90
2023-02-12T10:32:25.498Z,39.20
2023-02-12T10:34:57.790Z,36.70
2023-02-12T10:37:49.694Z,35.70
2023-02-12T10:40:21.717Z,33.63
2023-02-12T10:42:52.195Z,37.83
2023-02-12T10:45:23.781Z,33.53
2023-02-12T10:47:56.027Z,32.10
2023-02-12T10:50:33.954Z,34.57
2023-02-12T10:53:04.552Z,31.10
2023-02-12T10:55:35.744Z,30.80
2023-02-12T10:58:06.277Z,28.77
2023-02-12T11:00:36.686Z,30.27
2023-02-12T11:03:21.672Z,29.07
2023-02-12T11:05:50.866Z,27.43
2023-02-12T11:08:36.701Z,27.47
2023-02-12T11:11:08.677Z,27.90
2023-02-12T11:13:38.402Z,29.00
2023-02-12T11:16:07.816Z,30.40
2023-02-12T11:18:37.403Z,31.40
2023-02-12T11:21:08.085Z,30.10
2023-02-12T11:23:39.471Z,29.00
2023-02-12T11:26:23.527Z,29.17
2023-02-12T11:28:55.881Z,47.23
2023-02-12T11:31:26.491Z,108.20
2023-02-12T11:34:16.956Z,104.27
2023-02-12T11:36:47.162Z,78.43
2023-02-12T11:39:22.482Z,61.20
2023-02-12T11:41:54.598Z,45.03
2023-02-12T11:44:26.705Z,35.60
2023-02-12T11:47:02.096Z,33.50
2023-02-12T11:49:33.843Z,33.00
2023-02-12T11:52:04.569Z,30.23
2023-02-12T11:54:41.072Z,28.70
2023-02-12T11:57:13.556Z,32.17
2023-02-12T11:59:47.228Z,23.63
2023-02-12T12:02:26.054Z,24.50
2023-02-12T12:05:00.096Z,25.23
2023-02-12T12:07:33.844Z,24.30
2023-02-12T12:10:11.484Z,24.27
2023-02-12T12:12:45.204Z,23.57
2023-02-12T12:15:39.679Z,24.97
2023-02-12T12:18:36.157Z,24.50
2023-02-12T12:21:11.080Z,22.83
2023-02-12T12:23:43.672Z,20.67
2023-02-12T12:26:20.132Z,20.40
2023-02-12T12:28:55.134Z,20.53
2023-02-12T12:31:27.374Z,21.30
2023-02-12T12:34:04.006Z,27.90
2023-02-12T12:37:02.478Z,21.83
2023-02-12T12:39:36.844Z,22.30
2023-02-12T12:42:40.962Z,24.37
2023-02-12T12:45:20.835Z,24.77
2023-02-12T12:48:01.367Z,19.80
2023-02-12T12:50:53.181Z,23.20
2023-02-12T12:53:34.047Z,23.63
2023-02-12T12:56:20.368Z,18.23
2023-02-12T12:59:14.352Z,20.73
2023-02-12T13:02:17.601Z,22.13
2023-02-12T13:05:02.548Z,26.10
2023-02-12T13:07:48.144Z,20.70
2023-02-12T13:10:28.750Z,22.23
2023-02-12T13:13:10.528Z,20.20
2023-02-12T13:15:47.267Z,21.30
2023-02-12T13:18:24.530Z,20.63
2023-02-12T13:20:59.964Z,20.80
2023-02-12T13:23:40.777Z,34.63
2023-02-12T13:26:16.550Z,36.53
2023-02-12T13:28:48.857Z,33.03
2023-02-12T13:31:33.462Z,33.43
2023-02-12T13:34:06.282Z,33.03
2023-02-12T13:36:38.087Z,27.40
2023-02-12T13:39:15.276Z,25.13
2023-02-12T13:41:50.397Z,29.73
2023-02-12T13:44:28.179Z,30.47
2023-02-12T13:47:04.469Z,26.33
2023-02-12T13:49:42.535Z,28.83
2023-02-12T13:52:19.467Z,31.10
2023-02-12T13:54:58.696Z,26.50
2023-02-12T13:57:27.145Z,32.57
2023-02-12T13:59:58.276Z,29.47
2023-02-12T14:02:52.095Z,28.40
2023-02-12T14:05:30.100Z,31.67
2023-02-12T14:08:03.602Z,26.40
2023-02-12T14:10:36.139Z,28.13
2023-02-12T14:13:22.000Z,30.13
2023-02-12T14:15:53.332Z,31.67
2023-02-12T14:18:32.209Z,25.63
2023-02-12T14:21:44.925Z,23.60
2023-02-12T14:24:52.704Z,23.30
2023-02-12T14:27:47.070Z,26.80
2023-02-12T14:30:30.723Z,23.27
2023-02-12T14:33:25.232Z,27.93
2023-02-12T14:36:18.098Z,22.67
2023-02-12T14:39:02.589Z,25.77
2023-02-12T14:41:38.600Z,23.30
2023-02-12T14:44:45.697Z,22.77
2023-02-12T14:47:53.769Z,23.57
2023-02-12T14:50:27.228Z,26.00
2023-02-12T14:53:04.919Z,26.53
2023-02-12T14:55:36.102Z,23.70
2023-02-12T14:58:07.503Z,25.30
2023-02-12T15:00:42.230Z,23.47
2023-02-12T15:03:25.233Z,23.13
2023-02-12T15:06:00.861Z,21.33
2023-02-12T15:08:36.970Z,24.43
2023-02-12T15:11:15.889Z,27.13
2023-02-12T15:13:50.662Z,28.10
2023-02-12T15:16:28.789Z,29.13
2023-02-12T15:19:01.756Z,27.93
2023-02-12T15:21:32.972Z,28.17
2023-02-12T15:24:10.629Z,25.63
2023-02-12T15:26:42.858Z,31.80
2023-02-12T15:29:22.353Z,30.70
2023-02-12T15:31:57.067Z,32.10
2023-02-12T15:34:28.964Z,46.23
2023-02-12T15:36:59.649Z,44.80
2023-02-12T15:39:37.680Z,50.57
2023-02-12T15:42:06.148Z,39.13
2023-02-12T15:44:35.059Z,33.77
2023-02-12T15:47:12.353Z,28.60
2023-02-12T15:49:42.807Z,29.10
2023-02-12T15:52:18.976Z,27.97
2023-02-12T15:54:49.535Z,29.23
2023-02-12T15:57:23.353Z,24.07
2023-02-12T15:59:52.911Z,30.03
2023-02-12T16:02:27.319Z,32.23
2023-02-12T16:04:56.982Z,27.37
2023-02-12T16:07:27.384Z,30.77
2023-02-12T16:09:57.838Z,29.33
2023-02-12T16:12:31.477Z,27.50
2023-02-12T16:15:01.815Z,26.83
2023-02-12T16:17:32.672Z,29.17
2023-02-12T16:20:02.781Z,30.50
2023-02-12T16:22:35.318Z,26.33
2023-02-12T16:25:14.697Z,30.93
2023-02-12T16:27:50.381Z,29.80
2023-02-12T16:30:29.217Z,27.13
2023-02-12T16:32:58.595Z,28.97
2023-02-12T16:35:32.597Z,28.80
2023-02-12T16:38:05.048Z,26.27
2023-02-12T16:40:37.669Z,28.87
2023-02-12T16:43:27.556Z,29.17
2023-02-12T16:46:06.818Z,26.33
2023-02-12T16:48:40.280Z,24.00
2023-02-12T16:51:20.857Z,26.17
2023-02-12T16:53:50.197Z,28.40
2023-02-12T16:56:21.236Z,22.70
2023-02-12T16:58:51.990Z,29.33
2023-02-12T17:01:24.548Z,29.03
2023-02-12T17:03:54.339Z,29.30
2023-02-12T17:06:24.944Z,22.90
2023-02-12T17:08:53.478Z,28.63
2023-02-12T17:11:24.212Z,23.80
2023-02-12T17:13:54.730Z,25.33
2023-02-12T17:16:32.308Z,28.83
2023-02-12T17:19:01.243Z,31.57
2023-02-12T17:21:32.375Z,26.83
2023-02-12T17:24:00.907Z,25.20
2023-02-12T17:26:31.041Z,27.93
2023-02-12T17:29:05.622Z,20.30
2023-02-12T17:31:34.697Z,26.10
2023-02-12T17:34:03.546Z,27.47
2023-02-12T17:36:32.033Z,26.47
2023-02-12T17:39:01.226Z,32.57
2023-02-12T17:41:31.237Z,29.13
2023-02-12T17:43:59.810Z,28.70
2023-02-12T17:46:30.265Z,29.90
2023-02-12T17:48:59.233Z,35.03
2023-02-12T17:51:28.228Z,30.77
2023-02-12T17:53:56.659Z,25.77
2023-02-12T17:56:25.928Z,26.30
2023-02-12T17:58:55.836Z,25.77
2023-02-12T18:01:25.438Z,24.07
2023-02-12T18:03:55.950Z,30.97
2023-02-12T18:06:26.828Z,26.70
2023-02-12T18:08:56.599Z,28.30
2023-02-12T18:11:26.264Z,26.53
2023-02-12T18:13:57.360Z,28.57
2023-02-12T18:16:28.175Z,32.40
2023-02-12T18:18:59.972Z,25.77
2023-02-12T18:21:29.482Z,28.73
2023-02-12T18:23:58.367Z,26.87
2023-02-12T18:26:27.079Z,28.87
2023-02-12T18:28:58.681Z,26.17
2023-02-12T18:31:28.449Z,27.67
2023-02-12T18:33:57.271Z,24.90
2023-02-12T18:36:25.896Z,26.93
2023-02-12T18:38:54.795Z,27.47
2023-02-12T18:41:25.050Z,22.77
2023-02-12T18:43:54.996Z,23.83
2023-02-12T18:46:27.514Z,28.17
2023-02-12T18:48:56.892Z,25.33
2023-02-12T18:51:27.747Z,29.63
2023-02-12T18:53:57.384Z,28.63
2023-02-12T18:56:25.793Z,28.00
2023-02-12T18:58:57.096Z,29.30
2023-02-12T19:01:27.611Z,26.23
2023-02-12T19:03:59.013Z,30.70
2023-02-12T19:06:28.028Z,32.33
2023-02-12T19:08:57.139Z,29.77
2023-02-12T19:11:25.525Z,30.70
2023-02-12T19:13:54.274Z,58.63
2023-02-12T19:16:24.540Z,47.30
2023-02-12T19:18:58.444Z,38.47
2023-02-12T19:21:26.890Z,32.93
2023-02-12T19:23:56.391Z,34.30
2023-02-12T19:26:25.268Z,32.33
2023-02-12T19:28:54.131Z,30.87
2023-02-12T19:31:25.046Z,30.70
2023-02-12T19:33:58.906Z,32.30
2023-02-12T19:36:29.148Z,32.40
2023-02-12T19:38:57.577Z,29.50
2023-02-12T19:41:28.130Z,28.57
2023-02-12T19:43:58.333Z,27.63
2023-02-12T19:46:28.923Z,30.57
2023-02-12T19:49:00.467Z,35.43
2023-02-12T19:51:30.555Z,29.37
2023-02-12T19:54:04.176Z,31.30
2023-02-12T19:56:33.147Z,27.60
2023-02-12T19:59:01.472Z,27.43
2023-02-12T20:01:30.422Z,29.70
2023-02-12T20:04:00.389Z,24.03
2023-02-12T20:06:31.462Z,25.77
2023-02-12T20:08:59.920Z,29.60
2023-02-12T20:11:30.626Z,29.50
2023-02-12T20:13:59.454Z,28.77
2023-02-12T20:16:34.649Z,28.40
2023-02-12T20:19:07.610Z,26.40
2023-02-12T20:21:36.128Z,27.40
2023-02-12T20:24:05.077Z,27.03
2023-02-12T20:26:35.544Z,26.50
2023-02-12T20:29:05.336Z,27.10
2023-02-12T20:31:35.997Z,25.57
2023-02-12T20:34:07.856Z,24.67
2023-02-12T20:36:38.445Z,22.63
2023-02-12T20:39:09.799Z,23.63
2023-02-12T20:41:40.199Z,23.50
2023-02-12T20:44:11.277Z,23.30
2023-02-12T20:46:42.246Z,22.03
2023-02-12T20:49:14.355Z,19.43
2023-02-12T20:51:44.353Z,20.30
2023-02-12T20:54:14.047Z,21.87
2023-02-12T20:56:43.549Z,18.90
2023-02-12T20:59:13.622Z,19.93
2023-02-12T21:01:46.281Z,19.10
2023-02-12T21:04:18.867Z,21.60
2023-02-12T21:06:48.807Z,19.67
2023-02-12T21:09:19.944Z,19.83
2023-02-12T21:11:50.769Z,20.23
2023-02-12T21:14:23.214Z,18.17
2023-02-12T21:16:54.319Z,18.60
2023-02-12T21:19:25.884Z,21.23
2023-02-12T21:21:55.304Z,17.40
2023-02-12T21:24:25.389Z,16.93
2023-02-12T21:26:55.928Z,15.77
2023-02-12T21:29:27.494Z,17.17
2023-02-12T21:31:56.222Z,15.10
2023-02-12T21:34:29.721Z,13.97
2023-02-12T21:36:59.024Z,13.70
2023-02-12T21:39:31.457Z,14.67
2023-02-12T21:42:03.627Z,12.17
2023-02-12T21:44:36.109Z,13.70
2023-02-12T21:47:05.548Z,13.53
2023-02-12T21:49:36.448Z,13.83
2023-02-12T21:52:07.143Z,12.77
2023-02-12T21:54:36.313Z,11.50
2023-02-12T21:57:05.413Z,11.90
2023-02-12T21:59:34.133Z,12.17
2023-02-12T22:02:03.317Z,12.73
2023-02-12T22:04:32.811Z,11.60
2023-02-12T22:07:03.884Z,13.00
2023-02-12T22:09:32.804Z,12.13
2023-02-12T22:12:01.416Z,10.63
2023-02-12T22:14:29.977Z,11.13
2023-02-12T22:16:58.546Z,12.90
2023-02-12T22:19:27.194Z,11.17
2023-02-12T22:21:55.756Z,11.57
2023-02-12T22:24:25.729Z,10.70
2023-02-12T22:26:56.249Z,9.20
2023-02-12T22:29:24.997Z,10.43
2023-02-12T22:31:53.728Z,10.13
2023-02-12T22:34:22.229Z,9.57
2023-02-12T22:36:50.880Z,8.53
2023-02-12T22:39:19.373Z,22.30
2023-02-12T22:41:49.734Z,8.63
2023-02-12T22:44:21.229Z,10.43
2023-02-12T22:46:49.869Z,11.33
2023-02-12T22:49:18.350Z,9.83
2023-02-12T22:51:47.060Z,11.63
2023-02-12T22:54:17.156Z,8.63
2023-02-12T22:56:46.388Z,9.10
2023-02-12T22:59:16.128Z,9.13
2023-02-12T23:01:45.012Z,12.37
2023-02-12T23:04:16.831Z,8.70
2023-02-12T23:06:45.514Z,8.73
2023-02-12T23:09:16.964Z,10.03
2023-02-12T23:11:45.620Z,7.63
2023-02-12T23:14:15.380Z,8.80
2023-02-12T23:16:44.070Z,10.37
2023-02-12T23:19:12.836Z,8.10
2023-02-12T23:21:41.831Z,10.87
2023-02-12T23:24:13.442Z,9.40
2023-02-12T23:26:41.846Z,9.50
2023-02-12T23:29:10.887Z,8.30
2023-02-12T23:31:41.071Z,8.90
2023-02-12T23:34:09.771Z,8.83
2023-02-12T23:36:38.334Z,8.47
2023-02-12T23:39:06.810Z,8.07
2023-02-12T23:41:36.066Z,9.73
2023-02-12T23:44:04.592Z,7.80
2023-02-12T23:46:33.722Z,7.63
2023-02-12T23:49:03.488Z,8.60
2023-02-12T23:51:32.788Z,10.23
2023-02-12T23:54:01.197Z,9.03
2023-02-12T23:56:30.081Z,9.23
2023-02-12T23:58:58.472Z,9.50
